sensor_id;sensor_type;location;lat;lon;timestamp;P1;durP1;ratioP1;P2;durP2;ratioP2
13475;SDS011;6810;63.824;20.288;2023-06-22T00:01:00;13.27;;;12.07;;
13475;SDS011;6810;63.824;20.288;2023-06-22T00:03:27;13.33;;;12.13;;
13475;SDS011;6810;63.824;20.288;2023-06-22T00:05:54;12.80;;;11.60;;
13475;SDS011;6810;63.824;20.288;2023-06-22T00:08:23;14.13;;;12.83;;
13475;SDS011;6810;63.824;20.288;2023-06-22T00:10:50;13.50;;;12.30;;
13475;SDS011;6810;63.824;20.288;2023-06-22T00:13:17;13.20;;;11.93;;
13475;SDS011;6810;63.824;20.288;2023-06-22T00:15:44;12.90;;;11.70;;
13475;SDS011;6810;63.824;20.288;2023-06-22T00:18:12;13.90;;;12.60;;
13475;SDS011;6810;63.824;20.288;2023-06-22T00:20:40;12.70;;;11.50;;
13475;SDS011;6810;63.824;20.288;2023-06-22T00:23:08;12.57;;;11.50;;
13475;SDS011;6810;63.824;20.288;2023-06-22T00:25:36;13.13;;;12.00;;
13475;SDS011;6810;63.824;20.288;2023-06-22T00:30:57;14.10;;;12.47;;
13475;SDS011;6810;63.824;20.288;2023-06-22T00:33:24;13.17;;;11.97;;
13475;SDS011;6810;63.824;20.288;2023-06-22T00:35:52;13.63;;;12.43;;
13475;SDS011;6810;63.824;20.288;2023-06-22T00:38:20;13.60;;;12.40;;
13475;SDS011;6810;63.824;20.288;2023-06-22T00:40:47;13.20;;;12.00;;
13475;SDS011;6810;63.824;20.288;2023-06-22T00:43:15;13.57;;;12.30;;
13475;SDS011;6810;63.824;20.288;2023-06-22T00:45:42;13.30;;;12.10;;
13475;SDS011;6810;63.824;20.288;2023-06-22T00:48:09;14.23;;;12.83;;
13475;SDS011;6810;63.824;20.288;2023-06-22T00:50:36;13.30;;;12.00;;
13475;SDS011;6810;63.824;20.288;2023-06-22T00:53:05;13.30;;;12.10;;
13475;SDS011;6810;63.824;20.288;2023-06-22T00:55:36;13.17;;;12.07;;
13475;SDS011;6810;63.824;20.288;2023-06-22T00:58:12;13.37;;;12.17;;
13475;SDS011;6810;63.824;20.288;2023-06-22T01:00:40;13.53;;;12.33;;
13475;SDS011;6810;63.824;20.288;2023-06-22T01:03:09;13.33;;;12.13;;
13475;SDS011;6810;63.824;20.288;2023-06-22T01:05:38;13.80;;;12.60;;
13475;SDS011;6810;63.824;20.288;2023-06-22T01:10:51;14.20;;;12.90;;
13475;SDS011;6810;63.824;20.288;2023-06-22T01:16:00;13.37;;;12.07;;
13475;SDS011;6810;63.824;20.288;2023-06-22T01:18:31;13.80;;;12.50;;
13475;SDS011;6810;63.824;20.288;2023-06-22T01:21:06;14.57;;;13.37;;
13475;SDS011;6810;63.824;20.288;2023-06-22T01:26:15;13.87;;;12.37;;
13475;SDS011;6810;63.824;20.288;2023-06-22T01:28:50;13.97;;;12.67;;
13475;SDS011;6810;63.824;20.288;2023-06-22T01:31:21;12.97;;;11.77;;
13475;SDS011;6810;63.824;20.288;2023-06-22T01:33:54;13.10;;;11.90;;
13475;SDS011;6810;63.824;20.288;2023-06-22T01:36:23;12.77;;;11.57;;
13475;SDS011;6810;63.824;20.288;2023-06-22T01:38:52;13.50;;;12.13;;
13475;SDS011;6810;63.824;20.288;2023-06-22T01:41:20;13.77;;;12.57;;
13475;SDS011;6810;63.824;20.288;2023-06-22T01:43:49;13.20;;;12.10;;
13475;SDS011;6810;63.824;20.288;2023-06-22T01:46:16;13.80;;;12.60;;
13475;SDS011;6810;63.824;20.288;2023-06-22T01:48:46;13.07;;;11.97;;
13475;SDS011;6810;63.824;20.288;2023-06-22T01:51:14;13.50;;;12.27;;
13475;SDS011;6810;63.824;20.288;2023-06-22T01:53:42;13.83;;;12.63;;
13475;SDS011;6810;63.824;20.288;2023-06-22T01:56:09;13.57;;;12.37;;
13475;SDS011;6810;63.824;20.288;2023-06-22T01:58:36;14.30;;;13.00;;
13475;SDS011;6810;63.824;20.288;2023-06-22T02:01:13;14.83;;;13.53;;
13475;SDS011;6810;63.824;20.288;2023-06-22T02:03:47;14.77;;;13.37;;
13475;SDS011;6810;63.824;20.288;2023-06-22T02:06:30;14.60;;;13.30;;
13475;SDS011;6810;63.824;20.288;2023-06-22T02:09:06;14.47;;;13.07;;
13475;SDS011;6810;63.824;20.288;2023-06-22T02:11:37;13.70;;;12.43;;
13475;SDS011;6810;63.824;20.288;2023-06-22T02:14:08;14.07;;;12.87;;
13475;SDS011;6810;63.824;20.288;2023-06-22T02:16:35;13.07;;;11.97;;
13475;SDS011;6810;63.824;20.288;2023-06-22T02:19:04;13.87;;;12.67;;
13475;SDS011;6810;63.824;20.288;2023-06-22T02:21:33;14.43;;;13.17;;
13475;SDS011;6810;63.824;20.288;2023-06-22T02:24:00;14.40;;;13.10;;
13475;SDS011;6810;63.824;20.288;2023-06-22T02:26:29;14.23;;;12.93;;
13475;SDS011;6810;63.824;20.288;2023-06-22T02:28:57;14.70;;;13.40;;
13475;SDS011;6810;63.824;20.288;2023-06-22T02:31:24;14.73;;;13.23;;
13475;SDS011;6810;63.824;20.288;2023-06-22T02:34:00;14.27;;;12.77;;
13475;SDS011;6810;63.824;20.288;2023-06-22T02:36:27;13.70;;;12.50;;
13475;SDS011;6810;63.824;20.288;2023-06-22T02:38:59;14.70;;;13.30;;
13475;SDS011;6810;63.824;20.288;2023-06-22T02:41:29;14.77;;;13.30;;
13475;SDS011;6810;63.824;20.288;2023-06-22T02:43:56;14.77;;;13.27;;
13475;SDS011;6810;63.824;20.288;2023-06-22T02:46:24;14.50;;;13.20;;
13475;SDS011;6810;63.824;20.288;2023-06-22T02:48:52;15.53;;;14.07;;
13475;SDS011;6810;63.824;20.288;2023-06-22T02:51:19;14.90;;;13.60;;
13475;SDS011;6810;63.824;20.288;2023-06-22T02:53:47;13.47;;;12.37;;
13475;SDS011;6810;63.824;20.288;2023-06-22T02:56:15;14.93;;;13.53;;
13475;SDS011;6810;63.824;20.288;2023-06-22T02:58:42;14.27;;;12.93;;
13475;SDS011;6810;63.824;20.288;2023-06-22T03:01:11;13.37;;;12.13;;
13475;SDS011;6810;63.824;20.288;2023-06-22T03:03:41;14.53;;;13.23;;
13475;SDS011;6810;63.824;20.288;2023-06-22T03:06:09;14.23;;;13.03;;
13475;SDS011;6810;63.824;20.288;2023-06-22T03:08:41;15.30;;;13.87;;
13475;SDS011;6810;63.824;20.288;2023-06-22T03:11:09;15.67;;;14.20;;
13475;SDS011;6810;63.824;20.288;2023-06-22T03:13:36;14.40;;;13.10;;
13475;SDS011;6810;63.824;20.288;2023-06-22T03:16:05;15.00;;;13.60;;
13475;SDS011;6810;63.824;20.288;2023-06-22T03:18:32;14.67;;;13.47;;
13475;SDS011;6810;63.824;20.288;2023-06-22T03:20:59;15.60;;;14.00;;
13475;SDS011;6810;63.824;20.288;2023-06-22T03:23:26;15.10;;;13.80;;
13475;SDS011;6810;63.824;20.288;2023-06-22T03:25:54;15.67;;;14.33;;
13475;SDS011;6810;63.824;20.288;2023-06-22T03:28:22;14.77;;;13.47;;
13475;SDS011;6810;63.824;20.288;2023-06-22T03:30:49;13.90;;;12.70;;
13475;SDS011;6810;63.824;20.288;2023-06-22T03:33:16;13.50;;;12.30;;
13475;SDS011;6810;63.824;20.288;2023-06-22T03:35:43;13.23;;;12.03;;
13475;SDS011;6810;63.824;20.288;2023-06-22T03:38:10;11.97;;;11.03;;
13475;SDS011;6810;63.824;20.288;2023-06-22T03:40:37;12.03;;;10.93;;
13475;SDS011;6810;63.824;20.288;2023-06-22T03:43:05;12.10;;;11.03;;
13475;SDS011;6810;63.824;20.288;2023-06-22T03:45:32;12.07;;;11.13;;
13475;SDS011;6810;63.824;20.288;2023-06-22T03:48:00;12.03;;;11.03;;
13475;SDS011;6810;63.824;20.288;2023-06-22T03:50:28;12.00;;;10.90;;
13475;SDS011;6810;63.824;20.288;2023-06-22T03:52:55;11.47;;;10.33;;
13475;SDS011;6810;63.824;20.288;2023-06-22T03:55:22;13.77;;;12.53;;
13475;SDS011;6810;63.824;20.288;2023-06-22T03:57:49;13.77;;;12.50;;
13475;SDS011;6810;63.824;20.288;2023-06-22T04:00:17;14.60;;;13.40;;
13475;SDS011;6810;63.824;20.288;2023-06-22T04:02:44;14.67;;;13.27;;
13475;SDS011;6810;63.824;20.288;2023-06-22T04:05:11;14.53;;;13.23;;
13475;SDS011;6810;63.824;20.288;2023-06-22T04:07:39;15.23;;;13.83;;
13475;SDS011;6810;63.824;20.288;2023-06-22T04:10:06;14.57;;;13.33;;
13475;SDS011;6810;63.824;20.288;2023-06-22T04:12:35;15.03;;;13.73;;
13475;SDS011;6810;63.824;20.288;2023-06-22T04:15:03;14.67;;;13.37;;
13475;SDS011;6810;63.824;20.288;2023-06-22T04:17:30;12.77;;;11.67;;
13475;SDS011;6810;63.824;20.288;2023-06-22T04:19:58;12.80;;;11.63;;
13475;SDS011;6810;63.824;20.288;2023-06-22T04:22:25;12.97;;;11.80;;
13475;SDS011;6810;63.824;20.288;2023-06-22T04:24:52;12.70;;;11.50;;
13475;SDS011;6810;63.824;20.288;2023-06-22T04:27:19;12.40;;;11.30;;
13475;SDS011;6810;63.824;20.288;2023-06-22T04:29:46;12.70;;;11.60;;
13475;SDS011;6810;63.824;20.288;2023-06-22T04:32:15;11.13;;;10.23;;
13475;SDS011;6810;63.824;20.288;2023-06-22T04:34:43;10.90;;;10.07;;
13475;SDS011;6810;63.824;20.288;2023-06-22T04:37:10;11.77;;;10.77;;
13475;SDS011;6810;63.824;20.288;2023-06-22T04:39:42;11.93;;;10.93;;
13475;SDS011;6810;63.824;20.288;2023-06-22T04:42:09;11.60;;;10.50;;
13475;SDS011;6810;63.824;20.288;2023-06-22T04:44:37;12.77;;;11.67;;
13475;SDS011;6810;63.824;20.288;2023-06-22T04:47:04;11.63;;;10.40;;
13475;SDS011;6810;63.824;20.288;2023-06-22T04:49:33;12.20;;;11.20;;
13475;SDS011;6810;63.824;20.288;2023-06-22T04:52:03;12.63;;;11.37;;
13475;SDS011;6810;63.824;20.288;2023-06-22T04:54:33;12.40;;;11.30;;
13475;SDS011;6810;63.824;20.288;2023-06-22T04:57:01;12.07;;;10.87;;
13475;SDS011;6810;63.824;20.288;2023-06-22T04:59:30;11.57;;;10.60;;
13475;SDS011;6810;63.824;20.288;2023-06-22T05:01:58;11.77;;;10.73;;
13475;SDS011;6810;63.824;20.288;2023-06-22T05:04:28;11.33;;;10.23;;
13475;SDS011;6810;63.824;20.288;2023-06-22T05:06:59;12.27;;;11.07;;
13475;SDS011;6810;63.824;20.288;2023-06-22T05:09:29;11.47;;;10.50;;
13475;SDS011;6810;63.824;20.288;2023-06-22T05:12:16;11.80;;;10.80;;
13475;SDS011;6810;63.824;20.288;2023-06-22T05:15:03;10.87;;;9.87;;
13475;SDS011;6810;63.824;20.288;2023-06-22T05:17:51;11.60;;;10.50;;
13475;SDS011;6810;63.824;20.288;2023-06-22T05:20:39;12.17;;;11.03;;
13475;SDS011;6810;63.824;20.288;2023-06-22T05:23:26;12.97;;;11.70;;
13475;SDS011;6810;63.824;20.288;2023-06-22T05:26:13;13.77;;;12.37;;
13475;SDS011;6810;63.824;20.288;2023-06-22T05:29:01;13.07;;;11.93;;
13475;SDS011;6810;63.824;20.288;2023-06-22T05:31:49;12.73;;;11.67;;
13475;SDS011;6810;63.824;20.288;2023-06-22T05:34:36;11.67;;;10.47;;
13475;SDS011;6810;63.824;20.288;2023-06-22T05:37:23;10.87;;;9.77;;
13475;SDS011;6810;63.824;20.288;2023-06-22T05:40:11;11.27;;;10.17;;
13475;SDS011;6810;63.824;20.288;2023-06-22T05:42:58;12.07;;;11.03;;
13475;SDS011;6810;63.824;20.288;2023-06-22T05:45:45;12.93;;;11.73;;
13475;SDS011;6810;63.824;20.288;2023-06-22T05:48:32;12.87;;;11.67;;
13475;SDS011;6810;63.824;20.288;2023-06-22T05:51:20;13.20;;;11.97;;
13475;SDS011;6810;63.824;20.288;2023-06-22T05:54:07;13.40;;;12.20;;
13475;SDS011;6810;63.824;20.288;2023-06-22T05:56:57;13.80;;;12.40;;
13475;SDS011;6810;63.824;20.288;2023-06-22T05:59:44;13.73;;;12.43;;
13475;SDS011;6810;63.824;20.288;2023-06-22T06:02:31;11.23;;;10.10;;
13475;SDS011;6810;63.824;20.288;2023-06-22T06:05:18;12.63;;;9.83;;
13475;SDS011;6810;63.824;20.288;2023-06-22T06:08:05;11.30;;;10.27;;
13475;SDS011;6810;63.824;20.288;2023-06-22T06:10:53;11.73;;;10.63;;
13475;SDS011;6810;63.824;20.288;2023-06-22T06:13:40;12.03;;;10.83;;
13475;SDS011;6810;63.824;20.288;2023-06-22T06:16:27;12.87;;;11.67;;
13475;SDS011;6810;63.824;20.288;2023-06-22T06:19:14;14.33;;;13.10;;
13475;SDS011;6810;63.824;20.288;2023-06-22T06:22:01;14.80;;;13.40;;
13475;SDS011;6810;63.824;20.288;2023-06-22T06:24:48;13.73;;;12.43;;
13475;SDS011;6810;63.824;20.288;2023-06-22T06:27:38;13.53;;;12.23;;
13475;SDS011;6810;63.824;20.288;2023-06-22T06:30:25;11.30;;;10.30;;
13475;SDS011;6810;63.824;20.288;2023-06-22T06:33:13;12.07;;;10.43;;
13475;SDS011;6810;63.824;20.288;2023-06-22T06:36:00;10.03;;;9.13;;
13475;SDS011;6810;63.824;20.288;2023-06-22T06:38:47;11.40;;;9.50;;
13475;SDS011;6810;63.824;20.288;2023-06-22T06:41:34;11.20;;;10.10;;
13475;SDS011;6810;63.824;20.288;2023-06-22T06:44:21;10.90;;;9.90;;
13475;SDS011;6810;63.824;20.288;2023-06-22T06:47:08;14.80;;;13.33;;
13475;SDS011;6810;63.824;20.288;2023-06-22T06:49:56;14.17;;;12.80;;
13475;SDS011;6810;63.824;20.288;2023-06-22T06:52:43;12.20;;;11.10;;
13475;SDS011;6810;63.824;20.288;2023-06-22T06:55:30;14.53;;;13.13;;
13475;SDS011;6810;63.824;20.288;2023-06-22T06:58:17;17.47;;;13.67;;
13475;SDS011;6810;63.824;20.288;2023-06-22T07:01:04;14.03;;;12.27;;
13475;SDS011;6810;63.824;20.288;2023-06-22T07:03:51;13.03;;;11.73;;
13475;SDS011;6810;63.824;20.288;2023-06-22T07:06:39;13.10;;;11.97;;
13475;SDS011;6810;63.824;20.288;2023-06-22T07:09:26;13.17;;;11.87;;
13475;SDS011;6810;63.824;20.288;2023-06-22T07:12:13;13.97;;;12.60;;
13475;SDS011;6810;63.824;20.288;2023-06-22T07:15:04;13.97;;;12.63;;
13475;SDS011;6810;63.824;20.288;2023-06-22T07:17:52;13.03;;;11.83;;
13475;SDS011;6810;63.824;20.288;2023-06-22T07:20:39;10.70;;;9.70;;
13475;SDS011;6810;63.824;20.288;2023-06-22T07:23:26;10.60;;;9.60;;
13475;SDS011;6810;63.824;20.288;2023-06-22T07:26:13;9.00;;;8.20;;
13475;SDS011;6810;63.824;20.288;2023-06-22T07:29:00;9.03;;;8.13;;
13475;SDS011;6810;63.824;20.288;2023-06-22T07:31:47;9.37;;;8.30;;
13475;SDS011;6810;63.824;20.288;2023-06-22T07:34:36;10.03;;;8.53;;
13475;SDS011;6810;63.824;20.288;2023-06-22T07:37:23;11.87;;;8.27;;
13475;SDS011;6810;63.824;20.288;2023-06-22T07:40:10;9.40;;;8.50;;
13475;SDS011;6810;63.824;20.288;2023-06-22T07:42:58;9.20;;;8.37;;
13475;SDS011;6810;63.824;20.288;2023-06-22T07:45:50;12.67;;;9.27;;
13475;SDS011;6810;63.824;20.288;2023-06-22T07:48:40;9.93;;;8.93;;
13475;SDS011;6810;63.824;20.288;2023-06-22T07:51:27;10.37;;;9.47;;
13475;SDS011;6810;63.824;20.288;2023-06-22T07:54:15;10.20;;;9.17;;
13475;SDS011;6810;63.824;20.288;2023-06-22T07:57:02;10.60;;;9.70;;
13475;SDS011;6810;63.824;20.288;2023-06-22T07:59:49;10.03;;;9.03;;
13475;SDS011;6810;63.824;20.288;2023-06-22T08:02:38;10.03;;;9.03;;
13475;SDS011;6810;63.824;20.288;2023-06-22T08:05:26;11.27;;;10.37;;
13475;SDS011;6810;63.824;20.288;2023-06-22T08:08:13;10.60;;;9.50;;
13475;SDS011;6810;63.824;20.288;2023-06-22T08:11:00;11.50;;;10.43;;
13475;SDS011;6810;63.824;20.288;2023-06-22T08:13:47;11.63;;;10.63;;
13475;SDS011;6810;63.824;20.288;2023-06-22T08:16:33;11.20;;;10.30;;
13475;SDS011;6810;63.824;20.288;2023-06-22T08:19:21;10.93;;;9.93;;
13475;SDS011;6810;63.824;20.288;2023-06-22T08:22:08;11.83;;;10.57;;
13475;SDS011;6810;63.824;20.288;2023-06-22T08:24:55;11.13;;;9.93;;
13475;SDS011;6810;63.824;20.288;2023-06-22T08:27:44;11.30;;;10.20;;
13475;SDS011;6810;63.824;20.288;2023-06-22T08:30:32;11.60;;;10.50;;
13475;SDS011;6810;63.824;20.288;2023-06-22T08:33:19;10.67;;;9.67;;
13475;SDS011;6810;63.824;20.288;2023-06-22T08:36:15;11.50;;;10.30;;
13475;SDS011;6810;63.824;20.288;2023-06-22T08:39:03;11.53;;;10.40;;
13475;SDS011;6810;63.824;20.288;2023-06-22T08:41:50;11.70;;;10.60;;
13475;SDS011;6810;63.824;20.288;2023-06-22T08:44:37;12.10;;;11.00;;
13475;SDS011;6810;63.824;20.288;2023-06-22T08:47:24;11.97;;;10.73;;
13475;SDS011;6810;63.824;20.288;2023-06-22T08:50:11;11.87;;;10.83;;
13475;SDS011;6810;63.824;20.288;2023-06-22T08:52:59;13.30;;;11.50;;
13475;SDS011;6810;63.824;20.288;2023-06-22T08:55:46;12.93;;;11.63;;
13475;SDS011;6810;63.824;20.288;2023-06-22T08:58:33;13.17;;;11.93;;
13475;SDS011;6810;63.824;20.288;2023-06-22T09:01:23;13.43;;;12.03;;
13475;SDS011;6810;63.824;20.288;2023-06-22T09:04:10;12.70;;;11.50;;
13475;SDS011;6810;63.824;20.288;2023-06-22T09:06:58;12.80;;;11.60;;
13475;SDS011;6810;63.824;20.288;2023-06-22T09:09:45;14.03;;;11.97;;
13475;SDS011;6810;63.824;20.288;2023-06-22T09:12:32;12.70;;;11.50;;
13475;SDS011;6810;63.824;20.288;2023-06-22T09:15:20;14.07;;;12.70;;
13475;SDS011;6810;63.824;20.288;2023-06-22T09:18:09;13.40;;;12.07;;
13475;SDS011;6810;63.824;20.288;2023-06-22T09:20:57;15.17;;;11.77;;
13475;SDS011;6810;63.824;20.288;2023-06-22T09:23:44;12.90;;;11.60;;
13475;SDS011;6810;63.824;20.288;2023-06-22T09:26:31;12.80;;;11.50;;
13475;SDS011;6810;63.824;20.288;2023-06-22T09:29:18;13.73;;;12.43;;
13475;SDS011;6810;63.824;20.288;2023-06-22T09:32:05;13.30;;;11.90;;
13475;SDS011;6810;63.824;20.288;2023-06-22T09:34:53;14.20;;;12.00;;
13475;SDS011;6810;63.824;20.288;2023-06-22T09:37:40;12.83;;;11.47;;
13475;SDS011;6810;63.824;20.288;2023-06-22T09:40:28;13.97;;;11.47;;
13475;SDS011;6810;63.824;20.288;2023-06-22T09:43:16;15.37;;;12.10;;
13475;SDS011;6810;63.824;20.288;2023-06-22T09:46:03;15.63;;;14.17;;
13475;SDS011;6810;63.824;20.288;2023-06-22T09:48:50;17.17;;;15.37;;
13475;SDS011;6810;63.824;20.288;2023-06-22T09:51:37;16.13;;;14.63;;
13475;SDS011;6810;63.824;20.288;2023-06-22T09:54:25;16.90;;;15.20;;
13475;SDS011;6810;63.824;20.288;2023-06-22T09:57:12;15.67;;;14.07;;
13475;SDS011;6810;63.824;20.288;2023-06-22T09:59:59;16.43;;;14.70;;
13475;SDS011;6810;63.824;20.288;2023-06-22T10:02:46;15.57;;;14.07;;
13475;SDS011;6810;63.824;20.288;2023-06-22T10:05:34;16.63;;;14.83;;
13475;SDS011;6810;63.824;20.288;2023-06-22T10:08:20;16.03;;;13.90;;
13475;SDS011;6810;63.824;20.288;2023-06-22T10:11:08;13.40;;;12.03;;
13475;SDS011;6810;63.824;20.288;2023-06-22T10:13:55;15.20;;;12.97;;
13475;SDS011;6810;63.824;20.288;2023-06-22T10:16:42;12.17;;;11.07;;
13475;SDS011;6810;63.824;20.288;2023-06-22T10:19:29;12.70;;;11.60;;
13475;SDS011;6810;63.824;20.288;2023-06-22T10:22:16;12.53;;;10.80;;
13475;SDS011;6810;63.824;20.288;2023-06-22T10:25:03;12.13;;;10.87;;
13475;SDS011;6810;63.824;20.288;2023-06-22T10:27:50;13.03;;;11.47;;
13475;SDS011;6810;63.824;20.288;2023-06-22T10:30:38;12.80;;;10.93;;
13475;SDS011;6810;63.824;20.288;2023-06-22T10:33:26;12.33;;;11.13;;
13475;SDS011;6810;63.824;20.288;2023-06-22T10:36:13;12.87;;;11.50;;
13475;SDS011;6810;63.824;20.288;2023-06-22T10:39:00;12.10;;;11.00;;
13475;SDS011;6810;63.824;20.288;2023-06-22T10:41:47;11.57;;;10.47;;
13475;SDS011;6810;63.824;20.288;2023-06-22T10:44:34;11.00;;;10.00;;
13475;SDS011;6810;63.824;20.288;2023-06-22T10:47:21;11.37;;;10.27;;
13475;SDS011;6810;63.824;20.288;2023-06-22T10:50:08;11.27;;;9.60;;
13475;SDS011;6810;63.824;20.288;2023-06-22T10:52:55;10.87;;;9.87;;
13475;SDS011;6810;63.824;20.288;2023-06-22T10:55:42;10.33;;;9.43;;
13475;SDS011;6810;63.824;20.288;2023-06-22T10:58:29;10.57;;;9.57;;
13475;SDS011;6810;63.824;20.288;2023-06-22T11:01:16;10.40;;;9.40;;
13475;SDS011;6810;63.824;20.288;2023-06-22T11:04:04;11.30;;;10.07;;
13475;SDS011;6810;63.824;20.288;2023-06-22T11:06:51;11.60;;;10.23;;
13475;SDS011;6810;63.824;20.288;2023-06-22T11:09:38;10.73;;;9.70;;
13475;SDS011;6810;63.824;20.288;2023-06-22T11:12:25;10.87;;;9.50;;
13475;SDS011;6810;63.824;20.288;2023-06-22T11:15:12;10.23;;;9.43;;
13475;SDS011;6810;63.824;20.288;2023-06-22T11:18:00;11.17;;;10.20;;
13475;SDS011;6810;63.824;20.288;2023-06-22T11:20:47;11.13;;;10.10;;
13475;SDS011;6810;63.824;20.288;2023-06-22T11:23:34;11.87;;;10.57;;
13475;SDS011;6810;63.824;20.288;2023-06-22T11:26:21;12.23;;;11.03;;
13475;SDS011;6810;63.824;20.288;2023-06-22T11:29:08;11.93;;;10.73;;
13475;SDS011;6810;63.824;20.288;2023-06-22T11:32:03;11.30;;;10.10;;
13475;SDS011;6810;63.824;20.288;2023-06-22T11:34:55;12.10;;;10.90;;
13475;SDS011;6810;63.824;20.288;2023-06-22T11:37:43;11.63;;;10.63;;
13475;SDS011;6810;63.824;20.288;2023-06-22T11:40:30;12.10;;;11.10;;
13475;SDS011;6810;63.824;20.288;2023-06-22T11:43:17;12.03;;;11.03;;
13475;SDS011;6810;63.824;20.288;2023-06-22T11:46:04;11.83;;;10.73;;
13475;SDS011;6810;63.824;20.288;2023-06-22T11:48:52;12.20;;;11.00;;
13475;SDS011;6810;63.824;20.288;2023-06-22T11:51:39;12.77;;;11.50;;
13475;SDS011;6810;63.824;20.288;2023-06-22T11:54:26;12.70;;;11.50;;
13475;SDS011;6810;63.824;20.288;2023-06-22T11:57:13;12.77;;;11.57;;
13475;SDS011;6810;63.824;20.288;2023-06-22T12:00:00;13.53;;;12.33;;
13475;SDS011;6810;63.824;20.288;2023-06-22T12:02:48;12.43;;;11.10;;
13475;SDS011;6810;63.824;20.288;2023-06-22T12:05:35;13.13;;;11.87;;
13475;SDS011;6810;63.824;20.288;2023-06-22T12:08:22;13.87;;;12.57;;
13475;SDS011;6810;63.824;20.288;2023-06-22T12:11:09;12.93;;;11.67;;
13475;SDS011;6810;63.824;20.288;2023-06-22T12:14:38;13.80;;;12.57;;
13475;SDS011;6810;63.824;20.288;2023-06-22T12:17:26;13.73;;;12.43;;
13475;SDS011;6810;63.824;20.288;2023-06-22T12:20:13;13.80;;;12.50;;
13475;SDS011;6810;63.824;20.288;2023-06-22T12:23:01;13.93;;;12.60;;
13475;SDS011;6810;63.824;20.288;2023-06-22T12:25:48;13.70;;;12.40;;
13475;SDS011;6810;63.824;20.288;2023-06-22T12:28:35;12.60;;;11.40;;
13475;SDS011;6810;63.824;20.288;2023-06-22T12:31:22;11.70;;;10.60;;
13475;SDS011;6810;63.824;20.288;2023-06-22T12:34:09;11.37;;;10.37;;
13475;SDS011;6810;63.824;20.288;2023-06-22T12:36:57;11.87;;;10.87;;
13475;SDS011;6810;63.824;20.288;2023-06-22T12:39:44;11.17;;;10.17;;
13475;SDS011;6810;63.824;20.288;2023-06-22T12:42:31;10.93;;;9.93;;
13475;SDS011;6810;63.824;20.288;2023-06-22T12:45:18;11.33;;;10.43;;
13475;SDS011;6810;63.824;20.288;2023-06-22T12:48:05;11.60;;;10.50;;
13475;SDS011;6810;63.824;20.288;2023-06-22T12:50:53;11.30;;;10.30;;
13475;SDS011;6810;63.824;20.288;2023-06-22T12:53:40;11.70;;;10.70;;
13475;SDS011;6810;63.824;20.288;2023-06-22T12:56:27;11.53;;;10.53;;
13475;SDS011;6810;63.824;20.288;2023-06-22T12:59:14;9.90;;;9.00;;
13475;SDS011;6810;63.824;20.288;2023-06-22T13:02:02;9.40;;;8.50;;
13475;SDS011;6810;63.824;20.288;2023-06-22T13:04:49;9.13;;;8.33;;
13475;SDS011;6810;63.824;20.288;2023-06-22T13:07:36;9.20;;;8.30;;
13475;SDS011;6810;63.824;20.288;2023-06-22T13:10:23;8.50;;;7.80;;
13475;SDS011;6810;63.824;20.288;2023-06-22T13:13:10;8.50;;;7.80;;
13475;SDS011;6810;63.824;20.288;2023-06-22T13:15:57;9.47;;;8.60;;
13475;SDS011;6810;63.824;20.288;2023-06-22T13:18:44;9.27;;;8.47;;
13475;SDS011;6810;63.824;20.288;2023-06-22T13:21:33;9.67;;;8.87;;
13475;SDS011;6810;63.824;20.288;2023-06-22T13:24:20;10.50;;;9.60;;
13475;SDS011;6810;63.824;20.288;2023-06-22T13:27:07;9.20;;;8.40;;
13475;SDS011;6810;63.824;20.288;2023-06-22T13:29:54;9.67;;;8.77;;
13475;SDS011;6810;63.824;20.288;2023-06-22T13:32:41;10.77;;;9.80;;
13475;SDS011;6810;63.824;20.288;2023-06-22T13:35:29;10.70;;;9.80;;
13475;SDS011;6810;63.824;20.288;2023-06-22T13:38:16;10.97;;;9.97;;
13475;SDS011;6810;63.824;20.288;2023-06-22T13:41:03;10.23;;;9.33;;
13475;SDS011;6810;63.824;20.288;2023-06-22T13:43:50;10.83;;;9.93;;
13475;SDS011;6810;63.824;20.288;2023-06-22T13:46:37;12.40;;;11.20;;
13475;SDS011;6810;63.824;20.288;2023-06-22T13:49:24;12.13;;;11.03;;
13475;SDS011;6810;63.824;20.288;2023-06-22T13:52:11;11.83;;;10.73;;
13475;SDS011;6810;63.824;20.288;2023-06-22T13:54:58;11.57;;;10.57;;
13475;SDS011;6810;63.824;20.288;2023-06-22T13:57:45;10.57;;;9.57;;
13475;SDS011;6810;63.824;20.288;2023-06-22T14:00:32;12.13;;;11.13;;
13475;SDS011;6810;63.824;20.288;2023-06-22T14:03:22;9.53;;;8.73;;
13475;SDS011;6810;63.824;20.288;2023-06-22T14:06:09;10.07;;;9.17;;
13475;SDS011;6810;63.824;20.288;2023-06-22T14:08:56;11.43;;;10.43;;
13475;SDS011;6810;63.824;20.288;2023-06-22T14:11:43;9.57;;;8.67;;
13475;SDS011;6810;63.824;20.288;2023-06-22T14:14:31;11.20;;;10.10;;
13475;SDS011;6810;63.824;20.288;2023-06-22T14:17:18;12.27;;;11.17;;
13475;SDS011;6810;63.824;20.288;2023-06-22T14:20:06;12.50;;;11.40;;
13475;SDS011;6810;63.824;20.288;2023-06-22T14:22:54;11.17;;;10.17;;
13475;SDS011;6810;63.824;20.288;2023-06-22T14:25:41;10.53;;;9.63;;
13475;SDS011;6810;63.824;20.288;2023-06-22T14:28:28;11.17;;;10.17;;
13475;SDS011;6810;63.824;20.288;2023-06-22T14:31:18;10.83;;;9.83;;
13475;SDS011;6810;63.824;20.288;2023-06-22T14:34:05;10.47;;;9.57;;
13475;SDS011;6810;63.824;20.288;2023-06-22T14:36:53;11.53;;;10.53;;
13475;SDS011;6810;63.824;20.288;2023-06-22T14:39:40;11.27;;;10.27;;
13475;SDS011;6810;63.824;20.288;2023-06-22T14:42:27;11.03;;;10.03;;
13475;SDS011;6810;63.824;20.288;2023-06-22T14:45:14;12.03;;;10.93;;
13475;SDS011;6810;63.824;20.288;2023-06-22T14:48:01;11.77;;;10.73;;
13475;SDS011;6810;63.824;20.288;2023-06-22T14:50:48;13.00;;;11.73;;
13475;SDS011;6810;63.824;20.288;2023-06-22T14:53:36;11.93;;;10.83;;
13475;SDS011;6810;63.824;20.288;2023-06-22T14:56:23;11.60;;;10.60;;
13475;SDS011;6810;63.824;20.288;2023-06-22T14:59:10;8.20;;;7.50;;
13475;SDS011;6810;63.824;20.288;2023-06-22T15:01:57;9.10;;;8.30;;
13475;SDS011;6810;63.824;20.288;2023-06-22T15:04:44;8.73;;;7.93;;
13475;SDS011;6810;63.824;20.288;2023-06-22T15:07:31;7.70;;;7.00;;
13475;SDS011;6810;63.824;20.288;2023-06-22T15:10:18;7.83;;;7.23;;
13475;SDS011;6810;63.824;20.288;2023-06-22T15:13:05;6.93;;;6.43;;
13475;SDS011;6810;63.824;20.288;2023-06-22T15:15:52;8.37;;;7.67;;
13475;SDS011;6810;63.824;20.288;2023-06-22T15:18:40;8.40;;;7.60;;
13475;SDS011;6810;63.824;20.288;2023-06-22T15:21:27;8.40;;;7.70;;
13475;SDS011;6810;63.824;20.288;2023-06-22T15:24:14;8.97;;;8.17;;
13475;SDS011;6810;63.824;20.288;2023-06-22T15:27:01;8.80;;;8.10;;
13475;SDS011;6810;63.824;20.288;2023-06-22T15:29:48;9.33;;;8.43;;
13475;SDS011;6810;63.824;20.288;2023-06-22T15:32:36;8.57;;;7.77;;
13475;SDS011;6810;63.824;20.288;2023-06-22T15:35:23;10.17;;;9.27;;
13475;SDS011;6810;63.824;20.288;2023-06-22T15:38:10;10.37;;;9.37;;
13475;SDS011;6810;63.824;20.288;2023-06-22T15:40:57;10.87;;;9.90;;
13475;SDS011;6810;63.824;20.288;2023-06-22T15:43:44;11.80;;;10.63;;
13475;SDS011;6810;63.824;20.288;2023-06-22T15:46:31;12.17;;;10.93;;
13475;SDS011;6810;63.824;20.288;2023-06-22T15:49:19;12.00;;;10.80;;
13475;SDS011;6810;63.824;20.288;2023-06-22T15:52:06;12.27;;;10.70;;
13475;SDS011;6810;63.824;20.288;2023-06-22T15:54:53;12.43;;;11.23;;
13475;SDS011;6810;63.824;20.288;2023-06-22T15:57:43;12.37;;;11.17;;